Time;durP1;ratioP1;P1;durP2;ratioP2;P2;SDS_P1;SDS_P2;PMS_P1;PMS_P2;Temp;Humidity;BMP_temperature;BMP_pressure;BME280_temperature;BME280_humidity;BME280_pressure;Samples;Min_cycle;Max_cycle;Signal;HPM_P1;HPM_P2
2023/06/02 00:00:39;;;;;;;11.35;1.83;;;;;;;12.60;77.89;101004.25;5230038;28;20033;-73
2023/06/02 00:03:10;;;;;;;14.65;2.17;;;;;;;12.62;77.17;101000.63;5229054;28;20100;-70
2023/06/02 00:05:41;;;;;;;12.88;1.40;;;;;;;12.65;77.37;101005.75;5226986;28;20029;-73
2023/06/02 00:08:11;;;;;;;9.88;1.90;;;;;;;12.63;77.41;100997.09;5229661;28;20024;-75
2023/06/02 00:10:41;;;;;;;10.88;1.75;;;;;;;12.40;78.27;101004.09;5225169;28;20203;-74
2023/06/02 00:13:12;;;;;;;8.88;1.60;;;;;;;12.47;77.54;101005.59;5229666;28;20507;-74
2023/06/02 00:15:43;;;;;;;7.93;1.52;;;;;;;12.51;77.58;101012.44;5229368;28;20397;-75
2023/06/02 00:18:14;;;;;;;9.27;1.75;;;;;;;12.45;77.64;101007.41;5221948;28;20496;-74
2023/06/02 00:20:44;;;;;;;11.23;1.73;;;;;;;12.37;77.66;101023.44;5225199;28;20029;-74
2023/06/02 00:23:15;;;;;;;13.77;1.65;;;;;;;12.42;77.54;101008.38;5229137;28;20048;-73
2023/06/02 00:25:45;;;;;;;9.95;1.92;;;;;;;12.50;77.55;101011.56;5232413;28;20031;-74
2023/06/02 00:28:16;;;;;;;11.63;1.75;;;;;;;12.38;77.14;101012.03;5229354;28;20042;-74
2023/06/02 00:30:47;;;;;;;7.57;1.77;;;;;;;12.38;77.24;101011.16;5216498;28;20037;-74
2023/06/02 00:33:17;;;;;;;10.27;1.27;;;;;;;12.26;78.62;101012.44;5232218;28;20074;-73
2023/06/02 00:35:48;;;;;;;9.07;1.65;;;;;;;12.36;78.06;101018.22;5232434;28;20023;-70
2023/06/02 00:38:18;;;;;;;9.00;1.58;;;;;;;12.34;78.01;101020.91;5225050;28;20409;-74
2023/06/02 00:40:49;;;;;;;7.10;1.48;;;;;;;12.25;77.75;101026.47;5228225;28;20032;-72
2023/06/02 00:43:19;;;;;;;6.63;1.25;;;;;;;12.31;77.59;101028.03;5216878;28;20729;-72
2023/06/02 00:45:49;;;;;;;11.77;1.60;;;;;;;12.26;76.85;101022.94;5216959;28;20021;-74
2023/06/02 00:48:20;;;;;;;10.52;1.65;;;;;;;12.28;77.89;101025.53;5220825;28;20487;-74
2023/06/02 00:50:50;;;;;;;7.97;1.67;;;;;;;12.27;78.06;101024.66;5228453;28;20027;-74
2023/06/02 00:53:21;;;;;;;7.60;1.63;;;;;;;12.27;77.48;101027.25;5218564;28;20475;-74
2023/06/02 00:55:52;;;;;;;6.43;1.38;;;;;;;12.28;77.36;101022.91;5226363;28;20033;-74
2023/06/02 00:58:23;;;;;;;7.82;1.60;;;;;;;12.27;77.53;101015.94;5217873;28;20021;-74
2023/06/02 01:00:55;;;;;;;12.38;1.35;;;;;;;12.33;77.50;101024.41;5223391;28;20024;-73
2023/06/02 01:03:26;;;;;;;13.98;1.48;;;;;;;12.26;77.51;101017.69;5218842;28;20046;-74
2023/06/02 01:06:00;;;;;;;6.80;1.23;;;;;;;12.30;78.25;101024.53;5228200;28;20024;-74
2023/06/02 01:08:32;;;;;;;7.03;1.35;;;;;;;12.33;77.97;101020.97;5226165;28;20571;-74
2023/06/02 01:11:04;;;;;;;14.13;1.75;;;;;;;12.12;78.14;101025.19;5225044;28;20032;-74
2023/06/02 01:13:35;;;;;;;5.53;1.58;;;;;;;12.19;78.00;101024.06;5203272;28;20068;-74
2023/06/02 01:16:06;;;;;;;10.02;1.67;;;;;;;12.30;78.11;101019.28;5228796;28;20106;-72
2023/06/02 01:18:36;;;;;;;11.70;1.88;;;;;;;12.20;77.98;101017.91;5231160;28;20498;-73
2023/06/02 01:21:06;;;;;;;9.65;1.63;;;;;;;12.08;77.52;101013.09;5231776;28;20070;-73
2023/06/02 01:23:46;;;;;;;7.30;1.35;;;;;;;12.11;78.90;101017.38;5232460;28;20025;-75
2023/06/02 01:26:17;;;;;;;10.13;1.60;;;;;;;11.94;78.40;101017.94;5232483;28;20055;-74
2023/06/02 01:28:47;;;;;;;6.07;1.30;;;;;;;11.84;79.33;101013.94;5230447;28;20041;-75
2023/06/02 01:31:22;;;;;;;10.07;1.65;;;;;;;11.92;79.22;101019.78;5232250;28;20024;-74
2023/06/02 01:34:10;;;;;;;14.10;1.50;;;;;;;11.98;79.65;101019.53;5231428;28;20034;-75
2023/06/02 01:36:42;;;;;;;7.10;1.88;;;;;;;12.04;78.97;101018.50;5232423;28;20482;-72
2023/06/02 01:39:13;;;;;;;10.25;1.40;;;;;;;12.13;79.96;101020.81;5232363;28;20040;-70
2023/06/02 01:41:45;;;;;;;10.40;1.70;;;;;;;12.14;79.59;101014.66;5231683;28;20410;-73
2023/06/02 01:44:16;;;;;;;19.92;1.80;;;;;;;12.03;79.28;101011.53;5231042;28;20024;-74
2023/06/02 01:46:48;;;;;;;10.85;1.55;;;;;;;11.98;79.75;101021.31;5231992;28;20093;-73
2023/06/02 01:49:18;;;;;;;6.05;1.52;;;;;;;12.06;79.82;101012.28;5227267;28;20107;-74
2023/06/02 01:51:48;;;;;;;7.07;1.40;;;;;;;11.91;79.14;101007.59;5231769;28;20199;-72
2023/06/02 01:54:19;;;;;;;10.70;3.25;;;;;;;11.91;80.33;101010.19;5227928;28;20031;-74
2023/06/02 01:56:50;;;;;;;10.05;1.92;;;;;;;11.98;79.39;101016.09;5232739;28;20040;-71
2023/06/02 01:59:20;;;;;;;8.10;1.45;;;;;;;11.86;80.12;101013.88;5229972;28;20020;-74
2023/06/02 02:01:51;;;;;;;7.07;1.38;;;;;;;11.88;79.99;101012.94;5232309;28;20045;-74
2023/06/02 02:04:22;;;;;;;9.70;1.42;;;;;;;11.87;78.93;101008.59;5232381;28;20024;-74
2023/06/02 02:06:52;;;;;;;7.80;1.40;;;;;;;11.83;79.74;101011.38;5232578;28;20489;-75
2023/06/02 02:09:22;;;;;;;12.15;1.90;;;;;;;11.86;79.61;101012.13;5231939;28;20029;-74
2023/06/02 02:11:53;;;;;;;14.15;1.75;;;;;;;11.59;79.98;101012.19;5235252;28;20020;-74
2023/06/02 02:14:24;;;;;;;9.45;1.60;;;;;;;11.60;79.98;101019.97;5227834;28;20028;-74
2023/06/02 02:16:54;;;;;;;9.95;1.75;;;;;;;11.69;80.59;101014.47;5225103;28;20534;-74
2023/06/02 02:19:24;;;;;;;8.98;2.17;;;;;;;11.76;79.79;101015.94;5229773;28;20031;-74
2023/06/02 02:21:55;;;;;;;10.93;1.70;;;;;;;11.79;79.91;101015.00;5233773;28;20063;-74
2023/06/02 02:24:25;;;;;;;8.38;1.65;;;;;;;11.77;79.38;101016.81;5225228;28;20035;-75
2023/06/02 02:26:57;;;;;;;15.07;2.08;;;;;;;11.89;79.36;101017.25;5228433;28;20470;-71
2023/06/02 02:29:27;;;;;;;10.23;1.63;;;;;;;11.85;79.22;101015.66;5229978;28;20028;-73
2023/06/02 02:31:58;;;;;;;9.18;1.67;;;;;;;11.94;79.49;101020.56;5232328;28;20482;-74
2023/06/02 02:34:28;;;;;;;8.23;1.73;;;;;;;11.89;79.75;101032.97;5235027;28;20505;-74
2023/06/02 02:37:02;;;;;;;8.30;1.52;;;;;;;11.93;79.11;101021.47;5230210;28;20029;-74
2023/06/02 02:39:33;;;;;;;8.15;1.30;;;;;;;12.01;79.02;101022.09;5232046;28;20123;-73
2023/06/02 02:42:04;;;;;;;5.45;1.35;;;;;;;12.10;79.41;101026.16;5232899;28;20036;-75
2023/06/02 02:44:34;;;;;;;10.02;1.48;;;;;;;12.10;79.27;101020.91;5232956;28;20025;-73
2023/06/02 02:47:05;;;;;;;8.35;1.27;;;;;;;12.08;79.28;101020.97;5227725;28;20028;-74
2023/06/02 02:49:35;;;;;;;6.68;1.60;;;;;;;12.10;79.65;101021.75;5230353;28;20040;-71
2023/06/02 02:52:06;;;;;;;16.38;1.75;;;;;;;11.85;79.52;101015.66;5229482;28;20045;-74
2023/06/02 02:54:36;;;;;;;10.38;1.52;;;;;;;12.08;79.38;101023.56;5232248;28;20036;-75
2023/06/02 02:57:07;;;;;;;7.55;1.40;;;;;;;12.02;79.54;101025.56;5230264;28;20082;-72
2023/06/02 02:59:37;;;;;;;6.63;1.70;;;;;;;12.00;80.24;101016.88;5232207;28;20391;-74
2023/06/02 03:02:09;;;;;;;8.63;1.23;;;;;;;11.84;80.62;101023.56;5231577;28;20032;-71
2023/06/02 03:04:41;;;;;;;9.27;1.83;;;;;;;11.83;81.04;101021.84;5233105;28;20021;-71
2023/06/02 03:07:11;;;;;;;6.72;1.42;;;;;;;11.72;81.14;101019.59;5227316;28;20017;-71
2023/06/02 03:09:42;;;;;;;8.23;1.35;;;;;;;11.66;81.72;101011.94;5229883;28;20035;-74
2023/06/02 03:12:12;;;;;;;7.75;1.40;;;;;;;11.80;80.91;101019.34;5230654;28;20037;-72
2023/06/02 03:14:42;;;;;;;7.43;1.75;;;;;;;11.76;80.46;101021.19;5233017;28;20441;-72
2023/06/02 03:17:13;;;;;;;10.35;1.80;;;;;;;11.62;81.11;101014.72;5225432;28;20090;-71
2023/06/02 03:19:43;;;;;;;9.38;1.70;;;;;;;11.57;81.80;101019.22;5228003;28;20032;-73
2023/06/02 03:22:14;;;;;;;8.43;2.33;;;;;;;11.62;81.12;101023.41;5231346;28;20031;-74
2023/06/02 03:24:44;;;;;;;10.93;1.83;;;;;;;11.59;81.13;101030.53;5230418;28;20025;-75
2023/06/02 03:27:15;;;;;;;9.52;1.60;;;;;;;11.58;81.63;101020.94;5225866;28;20540;-70
2023/06/02 03:29:46;;;;;;;7.65;1.60;;;;;;;11.62;82.04;101020.78;5227635;28;20555;-74
2023/06/02 03:32:16;;;;;;;8.77;1.40;;;;;;;11.70;82.22;101026.63;5222740;28;20066;-72
2023/06/02 03:34:48;;;;;;;8.18;1.67;;;;;;;11.75;82.08;101029.13;5231273;28;20028;-74
2023/06/02 03:37:18;;;;;;;8.10;1.77;;;;;;;11.68;82.40;101038.06;5221398;28;20478;-74
2023/06/02 03:39:49;;;;;;;8.43;1.25;;;;;;;11.75;82.18;101036.97;5229881;28;20039;-72
2023/06/02 03:42:19;;;;;;;6.22;1.40;;;;;;;11.78;82.29;101024.59;5225894;28;20035;-74
2023/06/02 03:47:22;;;;;;;10.07;1.85;;;;;;;11.73;82.67;101039.63;5204188;28;19950;-71
2023/06/02 03:49:52;;;;;;;12.57;2.15;;;;;;;11.86;82.43;101038.31;5194832;28;20048;-72
2023/06/02 03:52:24;;;;;;;8.43;1.55;;;;;;;11.66;83.11;101050.34;5209018;28;20044;-72
2023/06/02 03:54:54;;;;;;;8.02;1.65;;;;;;;11.91;82.04;101049.50;5204505;28;20025;-71
2023/06/02 03:57:25;;;;;;;8.15;1.48;;;;;;;11.88;82.47;101051.34;5203933;28;20070;-71
2023/06/02 03:59:56;;;;;;;11.82;1.77;;;;;;;11.83;82.94;101048.91;5204554;28;20033;-71
2023/06/02 04:02:26;;;;;;;10.98;1.98;;;;;;;11.90;82.01;101053.03;5204085;28;20040;-72
2023/06/02 04:04:57;;;;;;;13.65;1.92;;;;;;;12.03;82.48;101053.47;5209132;28;20037;-72
2023/06/02 04:07:27;;;;;;;11.77;1.85;;;;;;;12.20;81.20;101049.38;5202867;28;20021;-72
2023/06/02 04:09:57;;;;;;;17.65;2.42;;;;;;;12.38;81.31;101059.22;5208854;28;20032;-72
2023/06/02 04:12:28;;;;;;;11.63;1.52;;;;;;;12.41;80.49;101059.09;5210067;28;20502;-72
2023/06/02 04:14:59;;;;;;;8.00;2.00;;;;;;;12.51;81.27;101067.50;5207976;28;20099;-72
2023/06/02 04:17:29;;;;;;;12.00;1.65;;;;;;;12.37;81.48;101067.13;5198109;28;20365;-72
2023/06/02 04:19:59;;;;;;;8.27;1.20;;;;;;;12.34;80.88;101062.84;5203329;28;20064;-73
2023/06/02 04:22:30;;;;;;;11.43;1.90;;;;;;;12.40;82.14;101061.75;5204305;28;20371;-72
2023/06/02 04:25:00;;;;;;;8.05;1.23;;;;;;;12.36;82.26;101066.28;5208876;28;20612;-72
2023/06/02 04:27:30;;;;;;;12.30;2.28;;;;;;;12.38;82.04;101064.44;5206010;28;20021;-72
2023/06/02 04:30:01;;;;;;;16.80;2.00;;;;;;;12.51;82.18;101062.25;5205250;28;20064;-72
2023/06/02 04:32:32;;;;;;;9.40;2.10;;;;;;;12.81;81.19;101059.34;5207161;28;20033;-72
2023/06/02 04:35:03;;;;;;;10.50;1.65;;;;;;;12.85;80.91;101055.69;5198856;28;20399;-71
2023/06/02 04:37:33;;;;;;;14.20;1.60;;;;;;;12.60;81.03;101057.53;5204520;28;20021;-72
2023/06/02 04:40:04;;;;;;;8.68;1.58;;;;;;;12.69;81.10;101078.19;5209719;28;20028;-72
2023/06/02 04:42:36;;;;;;;7.18;1.50;;;;;;;13.08;80.23;101071.50;5204967;28;20029;-72
2023/06/02 04:45:15;;;;;;;8.05;1.10;;;;;;;12.82;79.53;101068.94;5204282;28;20556;-71
2023/06/02 04:47:46;;;;;;;10.40;2.08;;;;;;;13.01;80.11;101072.63;5199574;28;20059;-72
2023/06/02 04:50:16;;;;;;;11.32;1.98;;;;;;;12.90;80.23;101070.38;5206441;28;20028;-72
2023/06/02 04:52:47;;;;;;;7.45;1.63;;;;;;;12.98;80.67;101078.00;5204556;28;20521;-73
2023/06/02 04:55:17;;;;;;;6.03;1.48;;;;;;;12.98;79.91;101083.22;5204575;28;20092;-70
2023/06/02 04:57:47;;;;;;;13.02;2.38;;;;;;;12.82;80.35;101083.84;5201916;28;20021;-72
2023/06/02 05:00:18;;;;;;;9.75;1.50;;;;;;;12.86;81.01;101080.19;5198583;28;20033;-70
2023/06/02 05:02:48;;;;;;;15.30;2.67;;;;;;;12.77;81.61;101083.16;5192691;28;20057;-71
2023/06/02 05:05:18;;;;;;;13.88;1.77;;;;;;;12.96;82.01;101085.06;5191900;28;20045;-71
2023/06/02 05:07:48;;;;;;;10.52;1.98;;;;;;;12.95;81.69;101078.09;5198899;28;20021;-70
2023/06/02 05:10:19;;;;;;;16.10;1.88;;;;;;;13.12;82.55;101080.97;5201222;28;20037;-71
2023/06/02 05:12:49;;;;;;;11.98;2.22;;;;;;;12.94;82.10;101079.03;5205858;28;20048;-71
2023/06/02 05:15:20;;;;;;;9.95;2.50;;;;;;;12.99;82.97;101079.69;5208350;28;20039;-71
2023/06/02 05:17:53;;;;;;;13.82;2.20;;;;;;;13.16;82.96;101079.91;5211027;28;20359;-71
2023/06/02 05:20:23;;;;;;;10.63;1.80;;;;;;;13.32;82.11;101073.16;5207468;28;20024;-72
2023/06/02 05:22:53;;;;;;;10.52;1.83;;;;;;;13.82;79.69;101065.00;5207549;28;20025;-72
2023/06/02 05:25:24;;;;;;;14.95;1.88;;;;;;;14.55;77.66;101073.28;5207008;28;20328;-73
2023/06/02 05:27:54;;;;;;;9.77;1.75;;;;;;;15.19;75.44;101072.97;5195902;28;20112;-72
2023/06/02 05:30:25;;;;;;;10.85;1.95;;;;;;;14.84;73.83;101077.19;5204841;28;20541;-72
2023/06/02 05:32:55;;;;;;;11.40;1.83;;;;;;;14.60;75.65;101077.41;5209188;28;20025;-72
2023/06/02 05:35:25;;;;;;;7.55;1.73;;;;;;;14.23;76.51;101084.34;5205745;28;20512;-72
2023/06/02 05:37:55;;;;;;;11.27;1.67;;;;;;;14.29;77.50;101081.44;5207975;28;20052;-73
2023/06/02 05:40:26;;;;;;;15.55;1.92;;;;;;;14.25;77.99;101083.34;5207726;28;20398;-72
2023/06/02 05:42:56;;;;;;;11.57;2.35;;;;;;;14.02;78.87;101079.94;5200949;28;20037;-72
2023/06/02 05:45:26;;;;;;;9.88;2.42;;;;;;;13.79;79.25;101075.66;5206057;28;20034;-72
2023/06/02 05:47:57;;;;;;;10.77;2.03;;;;;;;14.05;79.75;101078.03;5208706;28;20414;-72
2023/06/02 05:50:27;;;;;;;11.63;1.90;;;;;;;13.70;80.98;101083.00;5212605;28;20029;-72
2023/06/02 05:52:57;;;;;;;10.10;1.70;;;;;;;13.81;81.34;101086.06;5209571;28;20033;-72
2023/06/02 05:55:27;;;;;;;12.52;1.95;;;;;;;13.45;82.30;101090.16;5207653;28;20071;-72
2023/06/02 05:57:58;;;;;;;10.02;2.22;;;;;;;13.54;82.00;101087.19;5213350;28;20498;-72
2023/06/02 06:00:28;;;;;;;8.57;1.67;;;;;;;13.60;82.64;101092.19;5205858;28;20051;-72
2023/06/02 06:02:58;;;;;;;9.13;2.03;;;;;;;13.46;82.02;101091.88;5208161;28;20458;-72
2023/06/02 06:05:28;;;;;;;9.70;2.22;;;;;;;13.64;83.56;101093.78;5210241;28;20416;-72
2023/06/02 06:07:59;;;;;;;13.52;2.97;;;;;;;13.58;84.38;101102.75;5213106;28;20032;-72
2023/06/02 06:10:29;;;;;;;11.52;2.35;;;;;;;13.43;84.38;101097.25;5214728;28;20040;-72
2023/06/02 06:12:59;;;;;;;13.93;2.25;;;;;;;13.43;85.05;101111.22;5210948;28;20029;-72
2023/06/02 06:15:29;;;;;;;9.90;2.10;;;;;;;13.45;84.69;101109.41;5208667;28;20235;-71
2023/06/02 06:18:00;;;;;;;10.70;1.90;;;;;;;13.37;85.13;101121.13;5204860;28;20032;-71
2023/06/02 06:20:30;;;;;;;12.18;2.20;;;;;;;13.40;85.14;101108.72;5213151;28;20016;-71
2023/06/02 06:23:00;;;;;;;13.43;3.33;;;;;;;13.80;84.58;101102.75;5210866;28;20050;-72
2023/06/02 06:25:31;;;;;;;7.57;1.90;;;;;;;14.43;82.99;101094.88;5213192;28;20032;-72
2023/06/02 06:28:01;;;;;;;6.25;1.95;;;;;;;15.15;80.51;101097.72;5209818;28;20071;-72
2023/06/02 06:30:31;;;;;;;12.85;2.50;;;;;;;15.36;78.93;101091.50;5204445;28;20069;-72
2023/06/02 06:33:02;;;;;;;13.07;2.13;;;;;;;15.42;77.70;101102.59;5210585;28;20489;-72
2023/06/02 06:35:32;;;;;;;11.88;2.40;;;;;;;15.53;77.42;101096.81;5211877;28;20025;-72
2023/06/02 06:38:03;;;;;;;12.00;2.42;;;;;;;15.45;77.56;101106.84;5213286;28;20044;-72
2023/06/02 06:40:33;;;;;;;7.10;1.63;;;;;;;15.21;78.01;101103.53;5208933;28;20035;-72
2023/06/02 06:43:04;;;;;;;11.45;2.17;;;;;;;14.97;78.69;101103.81;5214265;28;20021;-72
2023/06/02 06:45:34;;;;;;;13.05;2.10;;;;;;;14.83;79.82;101106.22;5212548;28;20021;-71
2023/06/02 06:48:05;;;;;;;11.63;3.05;;;;;;;14.81;80.00;101108.06;5213193;28;20029;-72
2023/06/02 06:50:35;;;;;;;11.25;2.00;;;;;;;14.77;80.94;101116.16;5210811;28;20497;-71
2023/06/02 06:53:08;;;;;;;7.38;2.00;;;;;;;14.70;82.38;101114.69;5210757;28;20079;-72
2023/06/02 06:55:38;;;;;;;8.85;2.13;;;;;;;14.70;81.93;101110.31;5211638;28;20029;-72
2023/06/02 06:58:08;;;;;;;5.82;2.10;;;;;;;14.45;81.73;101114.91;5212637;28;20025;-71
2023/06/02 07:00:39;;;;;;;13.98;2.40;;;;;;;14.79;80.62;101114.31;5208168;28;20039;-72
2023/06/02 07:03:09;;;;;;;8.93;2.17;;;;;;;15.04;80.57;101107.88;5212470;28;20462;-72
2023/06/02 07:05:42;;;;;;;6.90;1.88;;;;;;;15.09;77.95;101114.66;5211716;28;20744;-72
2023/06/02 07:08:13;;;;;;;13.10;2.42;;;;;;;14.66;81.64;101113.13;5211023;28;20028;-72
2023/06/02 07:10:43;;;;;;;13.95;2.35;;;;;;;15.40;80.28;101119.41;5212202;28;20040;-72
2023/06/02 07:13:15;;;;;;;12.00;2.00;;;;;;;15.27;78.94;101121.72;5210077;28;20470;-72
2023/06/02 07:15:45;;;;;;;15.13;2.53;;;;;;;15.24;78.59;101118.34;5211939;28;20087;-73
2023/06/02 07:18:16;;;;;;;6.65;1.90;;;;;;;15.76;77.80;101121.16;5209861;28;20605;-71
2023/06/02 07:20:46;;;;;;;9.90;2.40;;;;;;;16.98;74.68;101107.84;5214453;28;20537;-73
2023/06/02 07:23:17;;;;;;;11.55;2.20;;;;;;;17.09;72.98;101105.47;5210068;28;20017;-70
2023/06/02 07:25:47;;;;;;;10.02;2.10;;;;;;;16.56;73.76;101115.34;5215729;28;20027;-70
2023/06/02 07:28:18;;;;;;;11.82;1.95;;;;;;;16.41;74.90;101117.94;5210418;28;20025;-72
2023/06/02 07:30:48;;;;;;;13.75;2.60;;;;;;;16.43;75.11;101121.34;5210795;28;20087;-71
2023/06/02 07:33:19;;;;;;;6.70;1.67;;;;;;;15.99;76.09;101125.28;5211286;28;20020;-72
2023/06/02 07:35:49;;;;;;;8.30;1.95;;;;;;;16.04;77.54;101131.22;5213901;28;20028;-72
2023/06/02 07:38:20;;;;;;;8.48;1.90;;;;;;;15.94;77.25;101125.53;5209100;28;20032;-70
2023/06/02 07:40:50;;;;;;;11.93;2.33;;;;;;;15.85;75.33;101133.88;5213722;28;20029;-72
2023/06/02 07:43:20;;;;;;;10.88;2.47;;;;;;;15.83;76.58;101132.25;5211655;28;20025;-72
2023/06/02 07:45:50;;;;;;;13.20;2.13;;;;;;;15.90;77.11;101131.88;5209983;28;20498;-72
2023/06/02 07:48:21;;;;;;;13.15;1.95;;;;;;;15.89;76.29;101130.16;5208849;28;20024;-72
2023/06/02 07:50:51;;;;;;;5.22;2.22;;;;;;;16.09;76.36;101130.06;5213531;28;20082;-72
2023/06/02 07:53:21;;;;;;;10.15;2.13;;;;;;;17.27;74.50;101121.19;5207317;28;20033;-71
2023/06/02 07:55:52;;;;;;;10.57;2.03;;;;;;;17.21;72.21;101123.31;5207506;28;20257;-72
2023/06/02 07:58:22;;;;;;;9.77;2.20;;;;;;;17.34;72.18;101121.75;5212506;28;20029;-71
2023/06/02 08:00:52;;;;;;;12.63;2.42;;;;;;;17.44;71.53;101113.22;5207094;28;20025;-72
2023/06/02 08:03:22;;;;;;;8.40;1.83;;;;;;;17.25;72.41;101122.19;5214188;28;20394;-70
2023/06/02 08:05:53;;;;;;;10.15;2.15;;;;;;;17.91;71.08;101115.84;5210995;28;20025;-72
2023/06/02 08:08:23;;;;;;;5.07;2.05;;;;;;;19.08;69.42;101107.00;5203965;28;20024;-72
2023/06/02 08:10:56;;;;;;;6.03;1.80;;;;;;;20.51;63.97;101101.94;5214295;28;20028;-71
2023/06/02 08:13:27;;;;;;;12.73;2.47;;;;;;;21.68;60.94;101096.28;5209465;28;20056;-71
2023/06/02 08:15:59;;;;;;;6.70;2.08;;;;;;;21.25;60.75;101106.44;5210462;28;20545;-71
2023/06/02 08:18:29;;;;;;;8.93;2.00;;;;;;;21.70;59.24;101100.53;5207901;28;20076;-71
2023/06/02 08:21:00;;;;;;;6.83;1.50;;;;;;;20.08;64.60;101119.06;5211382;28;20025;-70
2023/06/02 08:23:31;;;;;;;7.05;1.70;;;;;;;20.31;63.27;101121.03;5210152;28;20752;-71
2023/06/02 08:26:01;;;;;;;8.98;2.30;;;;;;;21.31;60.14;101113.16;5213697;28;20020;-71
2023/06/02 08:28:33;;;;;;;7.15;1.70;;;;;;;21.54;60.90;101115.88;5208396;28;20041;-71
2023/06/02 08:31:04;;;;;;;8.00;1.60;;;;;;;22.19;59.31;101114.59;5211860;28;20033;-71
2023/06/02 08:33:35;;;;;;;7.20;1.88;;;;;;;20.69;61.84;101116.66;5212674;28;20379;-71
2023/06/02 08:36:06;;;;;;;6.93;1.30;;;;;;;20.66;60.94;101124.81;5211718;28;20414;-71
2023/06/02 08:38:40;;;;;;;11.10;1.88;;;;;;;20.70;61.40;101132.50;5208252;28;20068;-71
2023/06/02 08:41:12;;;;;;;9.40;2.40;;;;;;;21.41;60.53;101125.69;5212740;28;20487;-70
2023/06/02 08:43:42;;;;;;;7.57;1.67;;;;;;;20.94;61.29;101125.53;5211308;28;20037;-71
2023/06/02 08:46:14;;;;;;;8.40;1.77;;;;;;;20.45;63.24;101126.28;5211004;28;20029;-70
2023/06/02 08:48:47;;;;;;;7.32;2.03;;;;;;;20.70;60.49;101131.66;5212893;28;20028;-71
2023/06/02 08:51:24;;;;;;;8.32;1.77;;;;;;;19.60;65.16;101130.16;5210589;28;20441;-70
2023/06/02 08:53:54;;;;;;;7.88;1.80;;;;;;;20.63;62.50;101127.69;5206341;28;20237;-70
2023/06/02 08:56:25;;;;;;;8.05;1.85;;;;;;;19.99;62.91;101130.25;5214625;28;20017;-70
2023/06/02 08:58:55;;;;;;;8.18;1.80;;;;;;;19.53;63.76;101138.59;5212637;28;20029;-70
2023/06/02 09:01:25;;;;;;;10.57;1.70;;;;;;;19.21;66.13;101137.97;5211956;28;20036;-71
2023/06/02 09:03:56;;;;;;;5.18;1.65;;;;;;;19.08;67.32;101130.88;5211625;28;20021;-70
2023/06/02 09:06:26;;;;;;;10.00;2.67;;;;;;;19.22;66.41;101133.53;5213977;28;20399;-70
2023/06/02 09:09:00;;;;;;;6.95;1.92;;;;;;;18.87;67.51;101137.44;5211577;28;20345;-70
2023/06/02 09:11:32;;;;;;;9.68;1.88;;;;;;;18.63;67.66;101140.72;5214431;28;20087;-70
2023/06/02 09:14:19;;;;;;;10.68;2.08;;;;;;;18.79;68.21;101129.13;5211084;28;20025;-70
2023/06/02 09:16:49;;;;;;;6.18;1.88;;;;;;;18.99;68.77;101132.28;5210130;28;20047;-69
2023/06/02 09:19:20;;;;;;;7.78;2.13;;;;;;;18.76;68.04;101137.25;5212686;28;20025;-71
2023/06/02 09:21:51;;;;;;;5.57;1.70;;;;;;;18.53;69.28;101140.41;5208961;28;20391;-70
2023/06/02 09:24:32;;;;;;;7.85;1.83;;;;;;;18.08;70.44;101155.44;5215212;28;20106;-70
2023/06/02 09:27:02;;;;;;;8.55;1.92;;;;;;;18.27;69.42;101150.78;5211764;28;20048;-70
2023/06/02 09:29:37;;;;;;;5.68;1.55;;;;;;;18.32;70.98;101156.72;5214329;28;20472;-70
2023/06/02 09:32:16;;;;;;;6.13;1.73;;;;;;;18.44;70.95;101155.97;5214733;28;20067;-70
2023/06/02 09:34:48;;;;;;;7.95;1.92;;;;;;;18.03;70.45;101157.50;5205200;28;20038;-70
2023/06/02 09:37:19;;;;;;;10.57;1.88;;;;;;;18.01;71.30;101160.22;5204109;28;20421;-69
2023/06/02 09:39:52;;;;;;;5.75;1.50;;;;;;;18.00;71.18;101152.38;5197915;28;20083;-69
2023/06/02 09:42:22;;;;;;;5.18;1.67;;;;;;;18.10;71.90;101162.34;5208912;28;20430;-71
2023/06/02 09:48:17;;;;;;;4.85;1.65;;;;;;;17.87;72.73;101167.22;5162626;28;20304;-75
2023/06/02 09:50:48;;;;;;;7.85;1.60;;;;;;;18.16;72.80;101169.09;5169631;28;20030;-73
2023/06/02 09:53:19;;;;;;;9.32;1.60;;;;;;;18.26;71.90;101167.59;5166456;28;20057;-74
2023/06/02 09:55:50;;;;;;;9.73;1.80;;;;;;;18.45;71.29;101177.09;5163588;28;20029;-74
2023/06/02 09:58:20;;;;;;;10.50;1.70;;;;;;;18.39;70.98;101168.66;5177015;28;20025;-76
2023/06/02 10:00:50;;;;;;;12.48;1.60;;;;;;;18.61;70.31;101172.59;5177519;28;20026;-76
2023/06/02 10:03:21;;;;;;;7.78;1.35;;;;;;;18.28;71.03;101176.34;5161006;28;20021;-75
2023/06/02 10:06:30;;;;;;;10.18;1.80;;;;;;;18.57;70.86;101180.81;5177290;28;20141;-75
2023/06/02 10:09:25;;;;;;;8.88;1.67;;;;;;;18.84;69.38;101175.59;5175148;28;20028;-75
2023/06/02 10:12:08;;;;;;;4.93;1.40;;;;;;;19.22;69.25;101160.03;5175381;28;20034;-75
2023/06/02 10:15:08;;;;;;;6.20;1.35;;;;;;;18.98;69.27;101175.63;5176795;28;20061;-75
2023/06/02 10:17:46;;;;;;;9.77;1.50;;;;;;;18.38;70.56;101174.88;5175055;28;20018;-75
2023/06/02 10:20:26;;;;;;;5.80;1.52;;;;;;;18.54;69.35;101175.69;5178533;28;20026;-76
2023/06/02 10:23:27;;;;;;;8.32;1.98;;;;;;;17.55;74.34;101181.38;5175434;28;20072;-75
2023/06/02 10:26:21;;;;;;;6.05;1.50;;;;;;;18.21;70.75;101174.97;5175873;28;20053;-76
2023/06/02 10:28:54;;;;;;;4.28;1.25;;;;;;;18.79;69.20;101167.03;5176205;28;20093;-75
2023/06/02 10:31:31;;;;;;;7.50;1.55;;;;;;;18.67;68.87;101166.09;5173559;28;20025;-74
2023/06/02 10:34:02;;;;;;;4.60;1.45;;;;;;;18.92;69.33;101168.03;5175479;28;20124;-75
2023/06/02 10:37:00;;;;;;;7.85;1.77;;;;;;;19.23;68.31;101152.00;5177992;28;20453;-75
2023/06/02 10:39:40;;;;;;;3.97;1.35;;;;;;;18.49;70.47;101161.88;5155685;28;20030;-76
2023/06/02 10:42:12;;;;;;;10.70;1.60;;;;;;;18.74;69.93;101163.00;5177460;28;20033;-77
2023/06/02 10:44:43;;;;;;;5.63;2.00;;;;;;;19.18;68.30;101154.09;5175959;28;20029;-77
2023/06/02 10:47:19;;;;;;;6.57;1.38;;;;;;;19.12;68.01;101151.75;5175607;28;20030;-72
2023/06/02 10:49:54;;;;;;;6.28;2.20;;;;;;;19.29;68.95;101156.06;5177719;28;20091;-74
2023/06/02 10:52:26;;;;;;;6.25;1.63;;;;;;;19.08;69.30;101155.53;5159495;28;20034;-72
2023/06/02 10:55:08;;;;;;;6.47;1.55;;;;;;;19.36;67.66;101152.94;5176859;28;20057;-74
2023/06/02 10:57:59;;;;;;;8.65;1.52;;;;;;;19.22;68.04;101147.63;5176036;28;20062;-75
2023/06/02 11:00:32;;;;;;;6.05;1.63;;;;;;;19.33;66.61;101147.84;5163895;28;20053;-75
2023/06/02 11:03:03;;;;;;;7.80;1.60;;;;;;;19.66;67.47;101145.72;5177295;28;20411;-74
2023/06/02 11:05:34;;;;;;;8.02;1.52;;;;;;;19.92;67.21;101144.03;5177455;28;20628;-74
2023/06/02 11:08:23;;;;;;;6.40;1.50;;;;;;;20.11;65.08;101148.06;5175806;28;20021;-76
2023/06/02 11:10:57;;;;;;;10.57;1.73;;;;;;;19.77;65.43;101155.63;5176589;28;20034;-74
2023/06/02 11:13:28;;;;;;;6.80;1.35;;;;;;;19.21;65.64;101159.19;5176528;28;20021;-75
2023/06/02 11:15:59;;;;;;;7.45;1.75;;;;;;;19.01;68.08;101156.88;5175706;28;20049;-76
2023/06/02 11:18:32;;;;;;;3.40;1.30;;;;;;;19.05;68.17;101161.03;5175060;28;20034;-75
2023/06/02 11:21:15;;;;;;;7.88;1.80;;;;;;;19.31;68.68;101155.00;5177155;28;20117;-71
2023/06/02 11:23:46;;;;;;;5.93;1.90;;;;;;;19.26;68.45;101151.78;5159553;28;20725;-75
2023/06/02 11:26:18;;;;;;;5.13;2.10;;;;;;;19.41;67.29;101148.19;5176884;28;20022;-75
2023/06/02 11:28:48;;;;;;;5.65;1.60;;;;;;;19.28;67.94;101154.38;5157344;28;20029;-71
2023/06/02 11:31:20;;;;;;;4.75;1.60;;;;;;;19.26;67.32;101143.84;5159509;28;20391;-75
2023/06/02 11:33:52;;;;;;;7.43;1.52;;;;;;;19.48;68.79;101146.84;5176206;28;20451;-75
2023/06/02 11:36:28;;;;;;;9.52;2.25;;;;;;;19.23;66.87;101144.03;5177223;28;20170;-74
2023/06/02 11:39:03;;;;;;;7.25;1.92;;;;;;;19.73;66.53;101146.16;5170810;28;20025;-75
2023/06/02 11:41:33;;;;;;;5.50;1.40;;;;;;;19.05;67.38;101155.75;5176409;28;20029;-76
2023/06/02 11:44:09;;;;;;;5.50;1.45;;;;;;;19.40;66.95;101149.16;5176688;28;20045;-75
2023/06/02 11:46:42;;;;;;;5.00;1.20;;;;;;;19.33;66.21;101146.97;5175676;28;20501;-74
2023/06/02 11:49:13;;;;;;;4.63;1.60;;;;;;;19.32;66.72;101154.09;5174646;28;20068;-75